createdAt,value
2023-03-11T00:00:55.609Z,63.45
2023-03-11T00:03:23.346Z,23.20
2023-03-11T00:05:50.938Z,26.38
2023-03-11T00:08:20.132Z,22.63
2023-03-11T00:10:48.608Z,21.65
2023-03-11T00:13:16.426Z,29.83
2023-03-11T00:15:45.920Z,18.42
2023-03-11T00:18:12.852Z,24.70
2023-03-11T00:20:42.264Z,23.15
2023-03-11T00:23:10.779Z,22.48
2023-03-11T00:25:38.726Z,20.88
2023-03-11T00:28:10.416Z,22.52
2023-03-11T00:30:38.886Z,21.42
2023-03-11T00:33:05.607Z,23.10
2023-03-11T00:35:33.715Z,22.10
2023-03-11T00:38:08.501Z,18.95
2023-03-11T00:43:03.900Z,23.08
2023-03-11T00:45:31.500Z,18.88
2023-03-11T00:47:58.448Z,25.05
2023-03-11T00:50:29.149Z,24.08
2023-03-11T00:52:56.294Z,20.27
2023-03-11T00:55:26.281Z,23.70
2023-03-11T00:57:55.222Z,22.17
2023-03-11T01:00:26.877Z,20.33
2023-03-11T01:02:54.988Z,26.23
2023-03-11T01:05:27.270Z,20.08
2023-03-11T01:07:53.959Z,21.90
2023-03-11T01:10:20.688Z,19.20
2023-03-11T01:12:47.755Z,23.38
2023-03-11T01:15:29.869Z,20.30
2023-03-11T01:17:59.106Z,23.38
2023-03-11T01:20:25.978Z,24.08
2023-03-11T01:22:52.966Z,20.52
2023-03-11T01:25:21.548Z,22.35
2023-03-11T01:27:48.297Z,19.90
2023-03-11T01:30:18.379Z,28.52
2023-03-11T01:32:45.947Z,19.95
2023-03-11T01:35:15.961Z,30.13
2023-03-11T01:37:42.614Z,22.25
2023-03-11T01:40:33.507Z,26.02
2023-03-11T01:43:05.520Z,23.17
2023-03-11T01:46:02.754Z,20.75
2023-03-11T01:48:30.762Z,29.00
2023-03-11T01:50:58.450Z,27.63
2023-03-11T01:53:25.634Z,29.20
2023-03-11T01:55:53.684Z,34.83
2023-03-11T01:58:26.275Z,25.02
2023-03-11T02:00:54.979Z,30.35
2023-03-11T02:03:27.191Z,28.50
2023-03-11T02:05:55.846Z,24.65
2023-03-11T02:08:23.332Z,25.95
2023-03-11T02:10:52.864Z,28.83
2023-03-11T02:13:20.166Z,29.33
2023-03-11T02:15:46.848Z,28.77
2023-03-11T02:18:15.120Z,26.83
2023-03-11T02:21:05.980Z,28.88
2023-03-11T02:23:45.199Z,25.15
2023-03-11T02:26:37.379Z,26.27
2023-03-11T02:29:07.021Z,22.92
2023-03-11T02:31:36.596Z,22.92
2023-03-11T02:34:07.275Z,24.05
2023-03-11T02:36:41.836Z,24.88
2023-03-11T02:39:11.752Z,25.35
2023-03-11T02:41:44.173Z,28.70
2023-03-11T02:44:13.520Z,26.65
2023-03-11T02:46:42.487Z,28.58
2023-03-11T02:49:12.012Z,23.60
2023-03-11T02:51:38.750Z,30.60
2023-03-11T02:54:06.534Z,27.02
2023-03-11T02:56:35.276Z,22.48
2023-03-11T02:59:01.895Z,24.75
2023-03-11T03:01:29.721Z,28.73
2023-03-11T03:03:56.650Z,26.20
2023-03-11T03:06:23.536Z,33.60
2023-03-11T03:08:51.392Z,25.63
2023-03-11T03:11:18.122Z,25.52
2023-03-11T03:13:46.553Z,29.75
2023-03-11T03:16:13.491Z,22.77
2023-03-11T03:18:40.286Z,32.50
2023-03-11T03:21:08.246Z,30.52
2023-03-11T03:23:37.463Z,29.85
2023-03-11T03:26:07.321Z,24.15
2023-03-11T03:28:37.060Z,22.23
2023-03-11T03:31:06.153Z,28.85
2023-03-11T03:33:32.898Z,27.88
2023-03-11T03:36:00.531Z,25.80
2023-03-11T03:38:30.882Z,24.67
2023-03-11T03:40:57.732Z,25.45
2023-03-11T03:43:24.542Z,25.17
2023-03-11T03:45:59.297Z,29.40
2023-03-11T03:48:29.863Z,29.63
2023-03-11T03:50:57.184Z,30.35
2023-03-11T03:53:23.988Z,25.52
2023-03-11T03:55:50.857Z,25.73
2023-03-11T03:58:18.729Z,28.95
2023-03-11T04:00:45.584Z,25.70
2023-03-11T04:03:12.553Z,25.02
2023-03-11T04:05:45.722Z,24.45
2023-03-11T04:08:13.752Z,27.25
2023-03-11T04:10:42.164Z,21.63
2023-03-11T04:13:08.832Z,23.95
2023-03-11T04:15:38.281Z,24.55
2023-03-11T04:18:05.533Z,25.58
2023-03-11T04:20:32.100Z,27.52
2023-03-11T04:22:58.741Z,28.77
2023-03-11T04:25:25.464Z,23.02
2023-03-11T04:27:52.334Z,23.25
2023-03-11T04:30:20.043Z,27.80
2023-03-11T04:32:48.857Z,26.83
2023-03-11T04:35:16.336Z,23.80
2023-03-11T04:37:43.017Z,27.05
2023-03-11T04:40:11.698Z,27.27
2023-03-11T04:42:39.028Z,24.10
2023-03-11T04:45:07.414Z,19.95
2023-03-11T04:47:34.956Z,20.20
2023-03-11T04:50:04.462Z,24.65
2023-03-11T04:52:31.398Z,28.13
2023-03-11T04:54:58.167Z,23.42
2023-03-11T04:57:27.524Z,25.90
2023-03-11T04:59:56.032Z,29.83
2023-03-11T05:02:22.796Z,27.95
2023-03-11T05:04:54.425Z,21.35
2023-03-11T05:07:21.305Z,19.15
2023-03-11T05:09:48.477Z,24.30
2023-03-11T05:12:15.471Z,17.30
2023-03-11T05:14:46.332Z,23.13
2023-03-11T05:17:14.753Z,20.67
2023-03-11T05:19:41.516Z,20.58
2023-03-11T05:22:15.484Z,23.05
2023-03-11T05:24:42.344Z,22.10
2023-03-11T05:27:09.105Z,18.85
2023-03-11T05:29:37.658Z,30.52
2023-03-11T05:32:06.788Z,23.05
2023-03-11T05:34:33.661Z,18.90
2023-03-11T05:37:03.169Z,19.20
2023-03-11T05:39:30.487Z,25.25
2023-03-11T05:41:57.311Z,18.17
2023-03-11T05:44:25.269Z,18.08
2023-03-11T05:46:52.393Z,17.30
2023-03-11T05:49:21.193Z,18.60
2023-03-11T05:51:50.483Z,24.35
2023-03-11T05:54:17.698Z,21.23
2023-03-11T05:56:47.773Z,21.98
2023-03-11T05:59:16.696Z,18.15
2023-03-11T06:01:45.472Z,19.05
2023-03-11T06:04:12.512Z,24.60
2023-03-11T06:06:41.280Z,19.83
2023-03-11T06:09:12.894Z,19.33
2023-03-11T06:11:39.913Z,15.60
2023-03-11T06:14:06.731Z,21.42
2023-03-11T06:16:33.467Z,22.55
2023-03-11T06:19:02.951Z,19.27
2023-03-11T06:21:33.854Z,16.05
2023-03-11T06:24:00.590Z,18.77
2023-03-11T06:26:28.809Z,15.98
2023-03-11T06:28:55.854Z,21.67
2023-03-11T06:31:27.775Z,20.98
2023-03-11T06:33:59.275Z,18.67
2023-03-11T06:36:26.896Z,21.70
2023-03-11T06:38:54.430Z,14.13
2023-03-11T06:41:24.088Z,24.67
2023-03-11T06:43:50.986Z,20.88
2023-03-11T06:46:20.953Z,17.05
2023-03-11T06:48:47.889Z,14.18
2023-03-11T06:51:16.282Z,13.50
2023-03-11T06:53:44.288Z,14.68
2023-03-11T06:56:13.135Z,12.52
2023-03-11T06:58:48.031Z,13.02
2023-03-11T07:01:21.597Z,34.15
2023-03-11T07:03:50.398Z,15.55
2023-03-11T07:06:19.805Z,22.30
2023-03-11T07:08:48.553Z,18.75
2023-03-11T07:11:20.746Z,11.43
2023-03-11T07:13:50.387Z,14.68
2023-03-11T07:16:21.034Z,13.80
2023-03-11T07:18:49.784Z,13.77
2023-03-11T07:21:21.836Z,9.88
2023-03-11T07:23:51.651Z,12.77
2023-03-11T07:26:18.635Z,12.95
2023-03-11T07:28:45.604Z,7.97
2023-03-11T07:31:15.634Z,10.48
2023-03-11T07:33:42.360Z,12.88
2023-03-11T07:36:12.222Z,15.48
2023-03-11T07:38:41.684Z,8.85
2023-03-11T07:41:09.075Z,10.90
2023-03-11T07:43:35.752Z,16.20
2023-03-11T07:46:16.364Z,12.43
2023-03-11T07:48:43.041Z,12.18
2023-03-11T07:51:24.530Z,16.45
2023-03-11T07:53:54.254Z,11.88
2023-03-11T07:56:23.529Z,16.23
2023-03-11T07:58:50.521Z,13.00
2023-03-11T08:01:22.225Z,15.68
2023-03-11T08:03:52.841Z,10.50
2023-03-11T08:06:21.968Z,13.50
2023-03-11T08:08:49.467Z,9.13
2023-03-11T08:11:17.474Z,11.93
2023-03-11T08:13:46.970Z,19.73
2023-03-11T08:16:20.612Z,13.88
2023-03-11T08:18:49.404Z,9.18
2023-03-11T08:21:18.720Z,13.18
2023-03-11T08:23:48.110Z,8.77
2023-03-11T08:26:17.292Z,11.23
2023-03-11T08:28:44.420Z,14.60
2023-03-11T08:31:19.904Z,11.55
2023-03-11T08:33:52.070Z,10.18
2023-03-11T08:36:19.741Z,11.38
2023-03-11T08:38:46.793Z,15.60
2023-03-11T08:41:13.765Z,11.23
2023-03-11T08:43:41.210Z,14.18
2023-03-11T08:46:08.269Z,15.32
2023-03-11T08:48:37.175Z,10.52
2023-03-11T08:51:12.998Z,13.27
2023-03-11T08:53:41.047Z,8.90
2023-03-11T08:56:08.200Z,7.68
2023-03-11T08:58:35.379Z,10.63
2023-03-11T09:01:02.248Z,14.75
2023-03-11T09:03:32.177Z,14.55
2023-03-11T09:06:06.492Z,9.55
2023-03-11T09:08:33.813Z,9.23
2023-03-11T09:11:00.641Z,14.18
2023-03-11T09:13:27.520Z,10.73
2023-03-11T09:15:54.717Z,8.40
2023-03-11T09:18:21.436Z,9.70
2023-03-11T09:20:48.216Z,12.57
2023-03-11T09:23:17.643Z,8.38
2023-03-11T09:25:44.793Z,13.70
2023-03-11T09:28:11.681Z,10.27
2023-03-11T09:30:38.383Z,8.50
2023-03-11T09:33:04.987Z,16.77
2023-03-11T09:35:31.690Z,7.25
2023-03-11T09:37:58.348Z,11.18
2023-03-11T09:40:27.142Z,9.60
2023-03-11T09:43:12.566Z,14.60
2023-03-11T09:45:49.830Z,8.43
2023-03-11T09:48:20.530Z,7.00
2023-03-11T09:51:03.225Z,7.85
2023-03-11T09:53:42.360Z,7.10
2023-03-11T09:56:17.299Z,12.35
2023-03-11T09:58:51.525Z,10.48
2023-03-11T10:01:24.073Z,9.07
2023-03-11T10:03:54.324Z,9.35
2023-03-11T10:06:26.592Z,10.13
2023-03-11T10:09:13.457Z,11.93
2023-03-11T10:12:09.533Z,8.18
2023-03-11T10:14:58.900Z,6.80
2023-03-11T10:17:57.997Z,8.18
2023-03-11T10:20:36.692Z,6.38
2023-03-11T10:23:18.334Z,9.35
2023-03-11T10:26:05.175Z,18.63
2023-03-11T10:28:38.570Z,15.95
2023-03-11T10:31:36.993Z,18.13
2023-03-11T10:34:16.558Z,17.08
2023-03-11T10:37:07.704Z,23.13
2023-03-11T10:39:34.394Z,31.63
2023-03-11T10:42:04.284Z,32.42
2023-03-11T10:44:41.998Z,31.63
2023-03-11T10:47:20.680Z,34.50
2023-03-11T10:49:47.576Z,34.75
2023-03-11T10:52:14.452Z,34.45
2023-03-11T10:54:46.194Z,31.55
2023-03-11T10:57:25.508Z,34.60
2023-03-11T10:59:55.370Z,35.60
2023-03-11T11:02:38.706Z,36.97
2023-03-11T11:05:30.362Z,39.13
2023-03-11T11:08:12.685Z,35.97
2023-03-11T11:11:03.662Z,35.55
2023-03-11T11:13:34.154Z,33.58
2023-03-11T11:16:20.764Z,33.03
2023-03-11T11:18:50.548Z,23.88
2023-03-11T11:21:34.402Z,25.17
2023-03-11T11:24:22.935Z,33.47
2023-03-11T11:27:07.064Z,33.95
2023-03-11T11:29:34.648Z,31.75
2023-03-11T11:32:21.674Z,27.85
2023-03-11T11:35:00.709Z,30.75
2023-03-11T11:37:31.825Z,32.17
2023-03-11T11:40:11.519Z,36.42
2023-03-11T11:42:41.133Z,35.38
2023-03-11T11:45:11.277Z,35.25
2023-03-11T11:47:43.948Z,33.75
2023-03-11T11:50:23.523Z,33.17
2023-03-11T11:52:57.219Z,34.28
2023-03-11T11:55:30.511Z,37.35
2023-03-11T11:57:58.762Z,32.58
2023-03-11T12:00:48.447Z,35.97
2023-03-11T12:03:17.931Z,39.38
2023-03-11T12:05:59.999Z,33.08
2023-03-11T12:08:32.221Z,32.85
2023-03-11T12:11:06.931Z,37.45
2023-03-11T12:13:49.281Z,31.85
2023-03-11T12:16:44.874Z,32.70
2023-03-11T12:19:11.453Z,32.70
2023-03-11T12:22:10.650Z,33.08
2023-03-11T12:25:05.798Z,31.92
2023-03-11T12:27:34.404Z,33.55
2023-03-11T12:30:14.270Z,30.05
2023-03-11T12:32:49.054Z,32.00
2023-03-11T12:35:27.579Z,30.90
2023-03-11T12:38:07.829Z,30.15
2023-03-11T12:40:49.600Z,31.88
2023-03-11T12:43:33.705Z,32.15
2023-03-11T12:46:02.205Z,30.55
2023-03-11T12:48:49.503Z,31.77
2023-03-11T12:51:34.712Z,29.92
2023-03-11T12:54:32.112Z,30.38
2023-03-11T12:57:01.362Z,29.02
2023-03-11T12:59:58.984Z,31.58
2023-03-11T13:03:02.909Z,29.08
2023-03-11T13:05:57.703Z,29.38
2023-03-11T13:08:28.290Z,31.10
2023-03-11T13:10:56.185Z,31.42
2023-03-11T13:13:35.888Z,32.10
2023-03-11T13:16:14.938Z,35.03
2023-03-11T13:18:43.793Z,32.65
2023-03-11T13:21:29.324Z,33.13
2023-03-11T13:24:21.896Z,26.80
2023-03-11T13:26:55.455Z,27.58
2023-03-11T13:29:28.098Z,25.00
2023-03-11T13:32:36.313Z,25.77
2023-03-11T13:35:36.885Z,23.80
2023-03-11T13:38:18.696Z,25.25
2023-03-11T13:40:46.886Z,25.98
2023-03-11T13:43:21.446Z,24.38
2023-03-11T13:45:56.558Z,24.55
2023-03-11T13:48:36.116Z,24.63
2023-03-11T13:51:15.281Z,24.50
2023-03-11T13:54:08.483Z,25.25
2023-03-11T13:56:44.592Z,26.20
2023-03-11T13:59:18.508Z,23.52
2023-03-11T14:02:07.802Z,28.97
2023-03-11T14:04:37.289Z,25.48
2023-03-11T14:07:14.897Z,31.67
2023-03-11T14:09:41.605Z,30.85
2023-03-11T14:12:09.436Z,33.42
2023-03-11T14:14:56.355Z,32.72
2023-03-11T14:17:23.046Z,29.13
2023-03-11T14:20:07.176Z,31.08
2023-03-11T14:22:34.216Z,34.13
2023-03-11T14:25:05.925Z,32.08
2023-03-11T14:27:32.657Z,33.80
2023-03-11T14:29:59.513Z,30.85
2023-03-11T14:32:28.977Z,34.20
2023-03-11T14:34:56.400Z,32.63
2023-03-11T14:37:26.003Z,31.83
2023-03-11T14:39:54.027Z,36.55
2023-03-11T14:42:26.639Z,35.25
2023-03-11T14:45:02.708Z,35.05
2023-03-11T14:47:56.439Z,35.05
2023-03-11T14:50:28.800Z,36.47
2023-03-11T14:52:58.834Z,36.28
2023-03-11T14:55:30.697Z,36.88
2023-03-11T14:58:07.381Z,37.17
2023-03-11T15:00:38.784Z,36.50
2023-03-11T15:03:25.012Z,37.83
2023-03-11T15:05:58.359Z,35.83
2023-03-11T15:08:29.500Z,35.50
2023-03-11T15:11:11.122Z,37.28
2023-03-11T15:13:39.804Z,38.30
2023-03-11T15:16:21.349Z,38.97
2023-03-11T15:18:48.419Z,38.47
2023-03-11T15:21:18.125Z,39.33
2023-03-11T15:24:00.801Z,38.72
2023-03-11T15:26:33.761Z,41.00
2023-03-11T15:29:15.656Z,29.10
2023-03-11T15:31:47.046Z,38.90
2023-03-11T15:34:16.643Z,40.10
2023-03-11T15:36:56.582Z,43.05
2023-03-11T15:39:43.743Z,35.10
2023-03-11T15:42:26.236Z,37.58
2023-03-11T15:45:17.782Z,42.75
2023-03-11T15:47:45.947Z,41.78
2023-03-11T15:50:43.276Z,35.63
2023-03-11T15:55:47.282Z,44.30
2023-03-11T15:58:19.627Z,37.70
2023-03-11T16:00:52.637Z,41.28
2023-03-11T16:03:20.321Z,41.63
2023-03-11T16:05:47.430Z,41.20
2023-03-11T16:08:14.069Z,42.55
2023-03-11T16:10:41.376Z,42.55
2023-03-11T16:13:12.802Z,41.42
2023-03-11T16:15:40.023Z,41.58
2023-03-11T16:18:08.685Z,38.80
2023-03-11T16:20:46.274Z,33.70
2023-03-11T16:23:50.226Z,33.28
2023-03-11T16:26:17.762Z,37.15
2023-03-11T16:28:44.372Z,35.22
2023-03-11T16:31:11.146Z,34.40
2023-03-11T16:33:37.755Z,36.78
2023-03-11T16:36:05.263Z,36.47
2023-03-11T16:38:45.717Z,36.65
2023-03-11T16:41:12.397Z,36.30
2023-03-11T16:43:39.058Z,36.58
2023-03-11T16:46:05.928Z,36.45
2023-03-11T16:48:32.950Z,39.30
2023-03-11T16:50:59.647Z,36.35
2023-03-11T16:53:26.870Z,34.38
2023-03-11T16:55:53.480Z,35.50
2023-03-11T16:58:20.297Z,35.13
2023-03-11T17:00:46.997Z,35.58
2023-03-11T17:03:15.733Z,35.03
2023-03-11T17:05:42.793Z,34.58
2023-03-11T17:08:10.186Z,36.13
2023-03-11T17:10:43.346Z,39.63
2023-03-11T17:13:12.299Z,42.85
2023-03-11T17:15:38.986Z,29.52
2023-03-11T17:18:05.954Z,31.33
2023-03-11T17:20:33.909Z,31.50
2023-03-11T17:23:01.049Z,31.92
2023-03-11T17:25:27.936Z,43.80
2023-03-11T17:27:54.560Z,28.70
2023-03-11T17:30:35.656Z,26.27
2023-03-11T17:33:03.454Z,32.22
2023-03-11T17:35:30.081Z,66.70
2023-03-11T17:37:56.820Z,33.78
2023-03-11T17:40:23.454Z,37.08
2023-03-11T17:42:50.105Z,33.15
2023-03-11T17:45:16.850Z,33.35
2023-03-11T17:47:43.931Z,33.90
2023-03-11T17:50:11.665Z,32.63
2023-03-11T17:52:38.300Z,37.72
2023-03-11T17:55:05.421Z,40.17
2023-03-11T17:57:39.931Z,39.63
2023-03-11T18:00:14.466Z,32.45
2023-03-11T18:02:41.195Z,33.10
2023-03-11T18:05:09.154Z,33.20
2023-03-11T18:07:38.827Z,57.70
2023-03-11T18:10:07.594Z,39.13
2023-03-11T18:12:34.423Z,34.40
2023-03-11T18:15:04.105Z,34.42
2023-03-11T18:17:30.734Z,32.17
2023-03-11T18:19:59.343Z,31.67
2023-03-11T18:22:26.423Z,33.35
2023-03-11T18:24:53.272Z,36.17
2023-03-11T18:27:19.948Z,40.97
2023-03-11T18:29:46.578Z,32.42
2023-03-11T18:32:13.241Z,37.10
2023-03-11T18:34:41.596Z,43.80
2023-03-11T18:37:08.550Z,31.20
2023-03-11T18:39:35.549Z,33.35
2023-03-11T18:42:02.803Z,32.00
2023-03-11T18:44:29.400Z,30.58
2023-03-11T18:46:56.104Z,22.60
2023-03-11T18:49:22.730Z,21.13
2023-03-11T18:51:49.337Z,25.08
2023-03-11T18:54:16.379Z,27.10
2023-03-11T18:56:43.052Z,26.90
2023-03-11T18:59:11.975Z,26.33
2023-03-11T19:01:38.746Z,22.05
2023-03-11T19:04:05.591Z,26.60
2023-03-11T19:06:32.316Z,23.60
2023-03-11T19:08:59.040Z,19.08
2023-03-11T19:11:25.800Z,22.38
2023-03-11T19:13:52.805Z,21.55
2023-03-11T19:16:22.059Z,23.60
2023-03-11T19:18:50.029Z,20.55
2023-03-11T19:21:17.243Z,24.85
2023-03-11T19:23:45.214Z,24.55
2023-03-11T19:26:12.804Z,25.70
2023-03-11T19:28:39.492Z,23.08
2023-03-11T19:31:06.650Z,21.25
2023-03-11T19:33:33.493Z,24.48
2023-03-11T19:36:03.082Z,19.42
2023-03-11T19:38:29.839Z,16.35
2023-03-11T19:41:18.854Z,18.25
2023-03-11T19:43:48.615Z,20.08
2023-03-11T19:46:20.715Z,18.45
2023-03-11T19:48:47.463Z,18.08
2023-03-11T19:51:14.909Z,17.25
2023-03-11T19:53:41.658Z,18.92
2023-03-11T19:56:08.951Z,19.33
2023-03-11T19:58:35.960Z,17.55
2023-03-11T20:01:02.750Z,15.38
2023-03-11T20:03:30.045Z,35.67
2023-03-11T20:06:03.979Z,13.70
2023-03-11T20:08:30.897Z,15.45
2023-03-11T20:11:00.907Z,13.55
2023-03-11T20:13:27.517Z,12.50
2023-03-11T20:15:54.167Z,12.20
2023-03-11T20:18:20.858Z,13.07
2023-03-11T20:20:47.542Z,12.27
2023-03-11T20:23:14.554Z,13.27
2023-03-11T20:25:42.040Z,12.80
2023-03-11T20:28:09.355Z,13.48
2023-03-11T20:30:38.131Z,14.32
2023-03-11T20:33:05.110Z,16.80
2023-03-11T20:35:31.886Z,15.93
2023-03-11T20:37:59.607Z,18.45
2023-03-11T20:40:26.320Z,20.52
2023-03-11T20:42:52.969Z,21.13
2023-03-11T20:45:22.529Z,23.85
2023-03-11T20:47:53.837Z,33.92
2023-03-11T20:50:22.064Z,36.85
2023-03-11T20:52:49.255Z,19.38
2023-03-11T20:55:15.989Z,18.70
2023-03-11T20:57:42.668Z,15.15
2023-03-11T21:00:11.858Z,22.55
2023-03-11T21:02:40.582Z,23.90
2023-03-11T21:05:08.828Z,25.45
2023-03-11T21:07:35.907Z,45.53
2023-03-11T21:10:05.374Z,30.20
2023-03-11T21:12:32.079Z,20.17
2023-03-11T21:14:58.806Z,25.85
2023-03-11T21:17:25.735Z,25.42
2023-03-11T21:19:52.362Z,26.50
2023-03-11T21:22:19.140Z,20.13
2023-03-11T21:24:50.203Z,31.70
2023-03-11T21:27:16.996Z,20.75
2023-03-11T21:29:43.805Z,27.00
2023-03-11T21:32:10.523Z,17.15
2023-03-11T21:34:37.168Z,20.77
2023-03-11T21:37:13.122Z,30.75
2023-03-11T21:39:39.857Z,28.27
2023-03-11T21:42:06.500Z,25.85
2023-03-11T21:44:33.191Z,30.77
2023-03-11T21:46:59.995Z,28.15
2023-03-11T21:49:26.875Z,31.67
2023-03-11T21:51:53.598Z,36.78
2023-03-11T21:54:20.587Z,41.08
2023-03-11T21:56:47.495Z,32.88
2023-03-11T21:59:14.107Z,23.90
2023-03-11T22:06:00.648Z,14.55
2023-03-11T22:08:27.647Z,20.73
2023-03-11T22:10:55.300Z,13.70
2023-03-11T22:13:22.906Z,19.02
2023-03-11T22:15:49.680Z,18.42
2023-03-11T22:18:16.549Z,13.13
2023-03-11T22:20:46.452Z,16.00
2023-03-11T22:23:13.095Z,13.68
2023-03-11T22:25:39.733Z,13.98
2023-03-11T22:28:06.722Z,13.70
2023-03-11T22:30:33.335Z,14.77
2023-03-11T22:32:59.976Z,13.65
2023-03-11T22:35:26.594Z,11.85
2023-03-11T22:37:53.250Z,11.10
2023-03-11T22:40:19.928Z,16.10
2023-03-11T22:42:46.552Z,12.18
2023-03-11T22:45:13.270Z,16.98
2023-03-11T22:47:39.944Z,15.68
2023-03-11T22:50:06.840Z,22.90
2023-03-11T22:52:33.593Z,22.25
2023-03-11T22:55:00.232Z,38.08
2023-03-11T22:57:26.831Z,45.20
2023-03-11T22:59:53.539Z,49.55
2023-03-11T23:02:20.230Z,34.10
2023-03-11T23:04:46.908Z,28.85
2023-03-11T23:07:13.597Z,36.20
2023-03-11T23:09:42.713Z,20.98
2023-03-11T23:12:09.451Z,28.52
2023-03-11T23:14:44.548Z,38.65
2023-03-11T23:17:12.293Z,33.13
2023-03-11T23:19:38.970Z,35.75
2023-03-11T23:22:06.797Z,31.75
2023-03-11T23:24:33.993Z,36.47
2023-03-11T23:27:06.871Z,19.25
2023-03-11T23:29:33.494Z,17.95
2023-03-11T23:32:00.144Z,22.73
2023-03-11T23:34:26.727Z,31.77
2023-03-11T23:36:53.363Z,22.05
2023-03-11T23:39:19.998Z,26.17
2023-03-11T23:41:46.628Z,43.75
2023-03-11T23:44:14.249Z,19.88
2023-03-11T23:46:40.871Z,21.40
2023-03-11T23:49:07.540Z,23.33
2023-03-11T23:51:34.227Z,17.17
2023-03-11T23:54:00.913Z,16.10
2023-03-11T23:56:27.548Z,18.77
2023-03-11T23:58:54.153Z,20.63
